Time;durP1;ratioP1;P1;durP2;ratioP2;P2;SDS_P1;SDS_P2;PMS_P1;PMS_P2;Temp;Humidity;BMP_temperature;BMP_pressure;BME280_temperature;BME280_humidity;BME280_pressure;Samples;Min_cycle;Max_cycle;Signal;HPM_P1;HPM_P2
2022/12/15 00:38:42;;;;;;;3.15;2.10;;;-2.90;99.90;;;;;;4879793;29;20051;-70
2022/12/15 00:41:16;;;;;;;3.15;1.75;;;-3.00;99.90;;;;;;4900658;29;20843;-69
2022/12/15 00:43:49;;;;;;;3.50;2.15;;;-3.10;99.90;;;;;;4884114;29;20052;-70
2022/12/15 00:48:59;;;;;;;3.30;2.28;;;-3.20;99.90;;;;;;4915107;29;20057;-70
2022/12/15 01:21:40;;;;;;;5.97;3.05;;;-4.00;99.90;;;;;;4888160;29;20513;-72
2022/12/15 01:24:06;;;;;;;5.53;3.53;;;-3.90;99.90;;;;;;4899025;29;20071;-72
2022/12/15 01:26:31;;;;;;;6.82;4.00;;;-3.80;99.90;;;;;;4882223;29;20040;-72
2022/12/15 01:28:57;;;;;;;6.13;3.55;;;-3.60;99.90;;;;;;4882781;29;20123;-73
2022/12/15 01:31:23;;;;;;;4.68;3.00;;;-3.50;99.90;;;;;;4882806;29;20044;-72
2022/12/15 01:33:53;;;;;;;4.72;2.72;;;-3.50;99.90;;;;;;4900197;29;20143;-73
2022/12/15 01:36:19;;;;;;;4.63;2.85;;;-3.40;99.90;;;;;;4915968;29;20111;-70
2022/12/15 01:38:44;;;;;;;3.87;1.83;;;-3.40;99.90;;;;;;4898717;29;20043;-70
2022/12/15 01:41:11;;;;;;;2.43;1.70;;;-3.40;99.90;;;;;;4897907;29;20307;-70
2022/12/15 01:43:39;;;;;;;2.85;1.90;;;-3.50;99.90;;;;;;4883573;29;20306;-69
2022/12/15 01:46:10;;;;;;;3.67;2.13;;;-3.60;99.90;;;;;;4898416;29;20040;-71
2022/12/15 01:48:45;;;;;;;3.05;1.90;;;-3.70;99.90;;;;;;4896421;29;20044;-72
2022/12/15 01:51:34;;;;;;;3.10;2.00;;;-3.60;99.90;;;;;;4881368;29;20521;-73
2022/12/15 01:54:08;;;;;;;2.72;1.98;;;-3.70;99.90;;;;;;4896030;29;20131;-73
2022/12/15 01:56:40;;;;;;;2.80;1.70;;;-3.60;99.90;;;;;;4897428;29;20497;-72
2022/12/15 01:59:09;;;;;;;2.63;1.52;;;-3.80;99.90;;;;;;4882094;29;20520;-72
2022/12/15 02:01:35;;;;;;;3.17;1.88;;;-3.90;99.90;;;;;;4896205;29;20048;-73
2022/12/15 02:04:01;;;;;;;3.35;2.25;;;-3.80;99.90;;;;;;4894937;29;20554;-73
2022/12/15 02:06:28;;;;;;;3.78;2.47;;;-3.60;99.90;;;;;;4894678;29;20053;-73
2022/12/15 02:08:56;;;;;;;;;;;-3.50;99.90;;;;;;4896439;29;20060;-73
2022/12/15 02:11:21;;;;;;;;;;;-3.50;99.90;;;;;;4895765;29;19962;-74
2022/12/15 02:14:02;;;;;;;4.80;2.67;;;-3.50;99.90;;;;;;4882370;29;19997;-74
2022/12/15 02:16:36;;;;;;;4.75;2.50;;;-3.50;99.90;;;;;;4895047;29;20135;-73
2022/12/15 02:19:29;;;;;;;4.07;2.13;;;-3.40;99.90;;;;;;4897714;29;21717;-73
2022/12/15 02:22:24;;;;;;;4.32;2.08;;;-3.40;99.90;;;;;;4879644;29;20043;-73
2022/12/15 02:24:53;;;;;;;4.03;2.25;;;-3.30;99.90;;;;;;4845032;29;20057;-73
2022/12/15 02:27:54;;;;;;;2.88;1.95;;;-3.10;99.90;;;;;;4883551;29;20056;-73
2022/12/15 02:30:34;;;;;;;4.25;2.30;;;-3.00;99.90;;;;;;4896936;29;20058;-74
2022/12/15 02:33:10;;;;;;;4.03;2.00;;;-3.00;99.90;;;;;;4898250;29;20119;-74
2022/12/15 02:35:53;;;;;;;3.22;2.10;;;-2.80;99.90;;;;;;4894988;29;20052;-74
2022/12/15 02:38:37;;;;;;;3.33;2.17;;;-2.60;99.90;;;;;;4890349;29;20054;-73
2022/12/15 02:41:04;;;;;;;5.80;3.15;;;-2.40;99.90;;;;;;4894961;29;20095;-73
2022/12/15 02:43:35;;;;;;;7.97;3.45;;;-2.40;99.90;;;;;;4897973;29;20470;-72
2022/12/15 02:46:15;;;;;;;5.15;3.05;;;-2.30;99.90;;;;;;4896932;29;20052;-72
2022/12/15 02:48:41;;;;;;;6.03;3.20;;;-2.30;99.90;;;;;;4896107;29;20036;-70
2022/12/15 02:51:31;;;;;;;5.23;2.67;;;-2.30;99.90;;;;;;4896917;29;20048;-71
2022/12/15 02:54:30;;;;;;;3.22;2.20;;;-2.30;99.90;;;;;;4897628;29;20044;-71
2022/12/15 02:57:04;;;;;;;2.50;1.85;;;-2.40;99.90;;;;;;4896422;29;20044;-70
2022/12/15 02:59:54;;;;;;;2.28;1.50;;;-2.60;99.90;;;;;;4894372;29;20052;-70
2022/12/15 03:02:24;;;;;;;2.88;1.67;;;-2.80;99.90;;;;;;4902987;29;20036;-70
2022/12/15 03:04:50;;;;;;;2.13;1.38;;;-3.00;99.90;;;;;;4896733;29;20067;-71
2022/12/15 03:07:15;;;;;;;2.00;1.20;;;-3.20;99.90;;;;;;4895501;29;20051;-70
2022/12/15 03:09:41;;;;;;;2.20;1.35;;;-3.30;99.90;;;;;;4894288;29;20056;-70
2022/12/15 03:12:09;;;;;;;1.73;1.33;;;-3.40;99.90;;;;;;4879478;29;20087;-70
2022/12/15 03:14:35;;;;;;;1.83;1.10;;;-3.40;99.90;;;;;;4896319;29;20062;-70
2022/12/15 03:17:01;;;;;;;2.05;1.10;;;-3.50;99.90;;;;;;4896399;29;20052;-70
2022/12/15 03:19:26;;;;;;;1.75;1.10;;;-3.60;99.90;;;;;;4895258;29;20080;-70
2022/12/15 03:21:52;;;;;;;1.33;0.90;;;-3.70;99.90;;;;;;4914884;29;20047;-70
2022/12/15 03:24:18;;;;;;;1.60;1.00;;;-3.70;99.90;;;;;;4893297;29;20044;-70
2022/12/15 03:26:47;;;;;;;1.63;1.10;;;-3.80;99.90;;;;;;4878656;29;20410;-71
2022/12/15 03:29:13;;;;;;;1.75;0.90;;;-3.90;99.90;;;;;;4896338;29;20044;-71
2022/12/15 03:31:38;;;;;;;1.40;0.98;;;-3.80;99.90;;;;;;4913451;29;20047;-70
2022/12/15 03:34:04;;;;;;;1.77;1.25;;;-3.50;99.90;;;;;;4896704;29;20059;-71
2022/12/15 03:36:30;;;;;;;1.83;1.20;;;-3.30;99.90;;;;;;4895764;29;20100;-71
2022/12/15 03:38:55;;;;;;;1.65;0.88;;;-3.20;99.90;;;;;;4894505;29;20047;-70
2022/12/15 03:41:21;;;;;;;1.35;0.90;;;-3.20;99.90;;;;;;4893126;29;20620;-70
2022/12/15 03:43:46;;;;;;;3.00;1.40;;;-3.20;99.90;;;;;;4871322;29;20059;-71
2022/12/15 03:46:12;;;;;;;1.63;1.00;;;-3.10;99.90;;;;;;4913610;29;20076;-71
2022/12/15 03:48:38;;;;;;;3.07;1.37;;;-3.10;99.90;;;;;;4896191;29;20040;-70
2022/12/15 03:51:03;;;;;;;2.63;1.30;;;-3.00;99.90;;;;;;4893063;29;20492;-71
2022/12/15 03:53:29;;;;;;;1.58;1.10;;;-2.80;99.90;;;;;;4878789;29;20420;-71
2022/12/15 03:55:55;;;;;;;2.33;1.30;;;-2.80;99.90;;;;;;4891714;29;20036;-71
2022/12/15 03:58:21;;;;;;;1.80;1.10;;;-2.70;99.90;;;;;;4882297;29;20285;-71
2022/12/15 04:00:47;;;;;;;2.38;1.33;;;-2.70;99.90;;;;;;4912422;29;20312;-71
2022/12/15 04:03:12;;;;;;;1.75;1.00;;;-2.60;99.90;;;;;;4884115;29;20490;-71
2022/12/15 04:05:38;;;;;;;1.95;1.00;;;-2.70;99.90;;;;;;4898203;29;20477;-71
2022/12/15 04:08:04;;;;;;;1.23;0.85;;;-2.80;99.90;;;;;;4897924;29;20119;-70
2022/12/15 04:10:31;;;;;;;1.88;0.80;;;-2.80;99.90;;;;;;4868071;29;20036;-71
2022/12/15 04:12:59;;;;;;;2.17;0.90;;;-2.90;99.90;;;;;;4883552;29;20051;-74
2022/12/15 04:15:25;;;;;;;1.85;1.10;;;-2.80;99.90;;;;;;4870692;29;20051;-73
2022/12/15 04:17:51;;;;;;;0.77;0.65;;;-2.70;99.90;;;;;;4882012;29;20082;-73
2022/12/15 04:20:17;;;;;;;1.02;0.70;;;-2.80;99.90;;;;;;4899212;29;20056;-73
2022/12/15 04:22:45;;;;;;;1.23;0.70;;;-2.80;99.90;;;;;;4884181;29;20431;-73
2022/12/15 05:34:15;;;;;;;2.72;1.80;;;-2.60;99.90;;;;;;4896339;29;20056;-71
2022/12/15 05:36:41;;;;;;;2.22;1.55;;;-2.50;99.90;;;;;;4898596;29;20363;-71
2022/12/15 05:39:07;;;;;;;2.92;1.40;;;-2.60;99.90;;;;;;4892837;29;20045;-71
2022/12/15 05:41:32;;;;;;;2.85;1.65;;;-2.60;99.90;;;;;;4890958;29;20055;-71
2022/12/15 05:43:58;;;;;;;2.43;1.63;;;-2.60;99.90;;;;;;4894433;29;20406;-71
2022/12/15 05:46:25;;;;;;;3.08;2.05;;;-2.70;99.90;;;;;;4897662;29;20789;-74
2022/12/15 05:48:51;;;;;;;5.25;2.53;;;-2.60;99.90;;;;;;4866326;29;20095;-73
2022/12/15 05:51:16;;;;;;;3.03;2.00;;;-2.60;99.90;;;;;;4882636;29;20513;-73
2022/12/15 05:53:42;;;;;;;4.20;2.83;;;-2.60;99.90;;;;;;4895845;29;20634;-74
2022/12/15 05:56:11;;;;;;;5.65;3.45;;;-2.40;99.90;;;;;;4880502;29;20179;-74
2022/12/15 05:58:37;;;;;;;6.40;3.65;;;-2.30;99.90;;;;;;4892351;29;20053;-74
2022/12/15 06:01:15;;;;;;;8.10;3.83;;;-2.30;99.90;;;;;;4896017;29;20067;-74
2022/12/15 06:03:41;;;;;;;6.63;3.97;;;-2.20;99.90;;;;;;4890810;29;20055;-74
2022/12/15 06:06:08;;;;;;;6.40;4.03;;;-2.10;99.90;;;;;;4897613;29;20051;-74
2022/12/15 06:08:36;;;;;;;5.10;3.72;;;-2.00;99.90;;;;;;4879543;29;20538;-74
2022/12/15 06:11:03;;;;;;;6.03;4.07;;;-1.90;99.90;;;;;;4895905;29;20051;-74
2022/12/15 06:13:35;;;;;;;;;;;-1.90;99.90;;;;;;4882917;29;20048;-74
2022/12/15 06:16:09;;;;;;;5.60;3.58;;;-1.80;99.90;;;;;;4885903;29;20399;-74
2022/12/15 06:18:41;;;;;;;5.68;3.50;;;-1.70;99.90;;;;;;4894818;29;20047;-73
2022/12/15 06:21:12;;;;;;;6.32;4.25;;;-1.70;99.90;;;;;;4897993;29;20056;-74
2022/12/15 06:23:39;;;;;;;5.03;3.38;;;-1.60;99.90;;;;;;4903094;29;20036;-72
2022/12/15 06:26:09;;;;;;;6.78;3.88;;;-1.60;99.90;;;;;;4890827;29;20048;-71
2022/12/15 06:28:34;;;;;;;5.10;3.60;;;-1.50;99.90;;;;;;4888419;29;20045;-71
2022/12/15 06:31:02;;;;;;;4.32;3.30;;;-1.50;99.90;;;;;;4889919;29;20040;-69
2022/12/15 06:33:29;;;;;;;4.50;3.47;;;-1.50;99.90;;;;;;4894060;29;20115;-69
2022/12/15 06:35:55;;;;;;;7.03;3.67;;;-1.40;99.90;;;;;;4909468;29;20195;-72
2022/12/15 06:38:21;;;;;;;6.32;3.60;;;-1.30;99.90;;;;;;4910422;29;20494;-73
2022/12/15 06:40:58;;;;;;;5.75;4.13;;;-1.30;99.90;;;;;;4910968;29;20044;-70
2022/12/15 06:43:24;;;;;;;5.82;3.40;;;-1.20;99.90;;;;;;4893358;29;20056;-69
2022/12/15 06:45:50;;;;;;;;;;;-1.20;99.90;;;;;;4890477;29;20600;-69
2022/12/15 06:48:16;;;;;;;7.43;4.10;;;-1.20;99.90;;;;;;4863185;29;19923;-70
2022/12/15 06:50:42;;;;;;;;;;;-1.10;99.90;;;;;;4859580;29;20067;-70
2022/12/15 06:53:08;;;;;;;5.40;3.45;;;-1.00;99.90;;;;;;4889309;29;19919;-70
2022/12/15 06:55:34;;;;;;;7.03;3.97;;;-1.00;99.90;;;;;;4892049;29;20130;-70
2022/12/15 06:57:59;;;;;;;6.10;3.90;;;-1.00;99.90;;;;;;4873117;29;20055;-79
2022/12/15 07:00:26;;;;;;;7.00;4.10;;;-1.00;99.90;;;;;;4875022;29;20092;-72
2022/12/15 07:02:52;;;;;;;5.22;3.45;;;-1.00;99.90;;;;;;4889422;29;20375;-70
2022/12/15 07:05:19;;;;;;;6.60;4.57;;;-1.00;99.90;;;;;;4905432;29;20541;-69
2022/12/15 07:07:45;;;;;;;7.05;4.30;;;-0.90;99.90;;;;;;4890588;29;20071;-71
2022/12/15 07:10:10;;;;;;;7.75;4.35;;;-0.90;99.90;;;;;;4855929;29;20048;-69
2022/12/15 07:12:36;;;;;;;6.93;4.30;;;-0.90;99.90;;;;;;4871113;29;20052;-71
2022/12/15 07:15:02;;;;;;;7.32;3.95;;;-0.90;99.90;;;;;;4886052;29;20485;-69
2022/12/15 07:17:28;;;;;;;7.53;3.95;;;-0.80;99.90;;;;;;4890839;29;20044;-69
2022/12/15 07:19:54;;;;;;;;;;;-0.90;99.90;;;;;;4896090;29;20103;-69
2022/12/15 07:22:20;;;;;;;6.13;3.70;;;-0.90;99.90;;;;;;4914441;29;19923;-69
2022/12/15 07:24:46;;;;;;;8.02;3.70;;;-0.80;99.90;;;;;;4894206;29;20096;-70
2022/12/15 07:27:13;;;;;;;5.10;3.30;;;-0.80;99.90;;;;;;4894565;29;20044;-70
2022/12/15 07:29:39;;;;;;;6.20;3.63;;;-0.80;99.90;;;;;;4884301;29;20050;-72
2022/12/15 07:32:05;;;;;;;7.07;3.67;;;-0.80;99.90;;;;;;4883548;29;20048;-72
2022/12/15 07:34:30;;;;;;;6.28;3.70;;;-0.80;99.90;;;;;;4900117;29;20032;-72
2022/12/15 07:36:56;;;;;;;5.75;4.10;;;-0.80;99.90;;;;;;4884741;29;20044;-72
2022/12/15 07:39:23;;;;;;;8.10;4.40;;;-0.70;99.90;;;;;;4884761;29;20124;-73
2022/12/15 07:41:48;;;;;;;6.80;4.13;;;-0.70;99.90;;;;;;4900823;29;20508;-73
2022/12/15 07:44:14;;;;;;;6.47;4.07;;;-0.80;99.90;;;;;;4898501;29;20048;-73
2022/12/15 07:46:40;;;;;;;6.78;4.10;;;-0.70;99.90;;;;;;4901053;29;20048;-73
2022/12/15 07:49:06;;;;;;;5.93;4.00;;;-0.60;99.90;;;;;;4867785;29;20040;-72
2022/12/15 07:51:31;;;;;;;7.05;4.45;;;-0.60;99.90;;;;;;4899944;29;20516;-72
2022/12/15 07:53:57;;;;;;;6.72;3.83;;;-0.60;99.90;;;;;;4895872;29;20083;-73
2022/12/15 07:56:23;;;;;;;6.30;3.55;;;-0.50;99.90;;;;;;4900233;29;20116;-72
2022/12/15 07:58:49;;;;;;;6.75;4.00;;;-0.60;99.90;;;;;;4900571;29;20131;-72
2022/12/15 08:01:15;;;;;;;;;;;-0.60;99.90;;;;;;4900454;29;20401;-72
2022/12/15 08:03:41;;;;;;;7.28;3.92;;;-0.60;99.90;;;;;;4900779;29;19919;-73
2022/12/15 08:06:11;;;;;;;7.03;3.83;;;-0.70;99.90;;;;;;4887937;29;20048;-73
2022/12/15 08:08:38;;;;;;;7.07;4.50;;;-0.70;99.90;;;;;;4900579;29;20363;-73
2022/12/15 08:11:05;;;;;;;9.55;4.53;;;-0.60;99.90;;;;;;4899413;29;20094;-72
2022/12/15 08:13:35;;;;;;;8.45;4.18;;;-0.60;99.90;;;;;;4897088;29;20093;-73
2022/12/15 08:16:01;;;;;;;5.78;3.78;;;-0.50;99.90;;;;;;4884392;29;20123;-72
2022/12/15 08:18:26;;;;;;;7.63;3.73;;;-0.60;99.90;;;;;;4885339;29;20131;-73
2022/12/15 08:20:52;;;;;;;6.53;3.92;;;-0.60;99.90;;;;;;4900085;29;20307;-73
2022/12/15 08:23:18;;;;;;;6.30;3.53;;;-0.60;99.90;;;;;;4900613;29;20123;-72
2022/12/15 08:25:44;;;;;;;5.80;3.65;;;-0.60;99.90;;;;;;4900341;29;20155;-72
2022/12/15 08:28:10;;;;;;;7.07;4.07;;;-0.70;99.90;;;;;;4901158;29;20127;-72
2022/12/15 08:30:36;;;;;;;5.90;3.90;;;-0.70;99.90;;;;;;4887887;29;20446;-73
2022/12/15 08:33:02;;;;;;;5.53;3.38;;;-0.70;99.90;;;;;;4900659;29;20050;-72
2022/12/15 08:35:28;;;;;;;;;;;-0.70;99.90;;;;;;4916157;29;20475;-73
2022/12/15 08:37:54;;;;;;;7.40;4.13;;;-0.70;99.90;;;;;;4900691;29;19970;-73
2022/12/15 08:40:19;;;;;;;7.10;4.20;;;-0.60;99.90;;;;;;4900360;29;20052;-72
2022/12/15 08:42:45;;;;;;;8.50;4.22;;;-0.60;99.90;;;;;;4884855;29;20044;-73
2022/12/15 08:45:11;;;;;;;6.75;3.95;;;-0.60;99.90;;;;;;4899604;29;20063;-72
2022/12/15 08:47:37;;;;;;;5.80;3.90;;;-0.60;99.90;;;;;;4866509;29;20045;-73
2022/12/15 08:50:06;;;;;;;6.35;3.90;;;-0.50;99.90;;;;;;4886740;29;20083;-73
2022/12/15 08:52:33;;;;;;;5.68;3.70;;;-0.30;99.90;;;;;;4899304;29;20044;-73
2022/12/15 08:54:58;;;;;;;;;;;-0.20;99.90;;;;;;4900290;29;20051;-73
2022/12/15 08:57:24;;;;;;;8.27;4.90;;;0.00;99.90;;;;;;4899808;29;20069;-72
2022/12/15 08:59:51;;;;;;;7.30;4.72;;;0.20;99.90;;;;;;4899596;29;20048;-73
2022/12/15 09:02:16;;;;;;;5.82;4.20;;;0.30;99.90;;;;;;4884096;29;20048;-73
2022/12/15 09:04:44;;;;;;;9.37;5.03;;;0.40;99.90;;;;;;4883599;29;20133;-73
2022/12/15 09:07:10;;;;;;;8.38;4.53;;;0.50;99.90;;;;;;4898506;29;20931;-73
2022/12/15 09:09:35;;;;;;;7.53;4.85;;;0.50;99.90;;;;;;4883235;29;20139;-73
2022/12/15 09:12:01;;;;;;;11.77;4.72;;;0.50;99.90;;;;;;4895376;29;20045;-72
2022/12/15 09:14:27;;;;;;;8.35;4.90;;;0.50;99.90;;;;;;4883572;29;20184;-74
2022/12/15 09:16:52;;;;;;;8.85;4.47;;;0.50;99.90;;;;;;4900168;29;20044;-73
2022/12/15 09:19:18;;;;;;;7.82;4.93;;;0.50;99.90;;;;;;4882999;29;20043;-73
2022/12/15 09:21:44;;;;;;;6.45;4.75;;;0.40;99.90;;;;;;4899649;29;20406;-73
2022/12/15 09:24:12;;;;;;;6.72;4.78;;;0.50;99.90;;;;;;4900186;29;20048;-73
2022/12/15 09:26:39;;;;;;;8.52;4.97;;;0.40;99.90;;;;;;4900698;29;20056;-73
2022/12/15 09:29:05;;;;;;;8.07;4.80;;;0.30;99.90;;;;;;4897958;29;20055;-73
2022/12/15 09:31:35;;;;;;;8.98;5.20;;;0.30;99.90;;;;;;4899846;29;20044;-73
2022/12/15 09:34:01;;;;;;;9.90;5.38;;;0.30;99.90;;;;;;4898046;29;20191;-73
2022/12/15 09:36:28;;;;;;;7.50;4.47;;;0.30;99.90;;;;;;4884729;29;20048;-73
2022/12/15 09:38:54;;;;;;;9.60;5.15;;;0.30;99.90;;;;;;4895302;29;20044;-74
2022/12/15 09:41:23;;;;;;;10.07;5.85;;;0.30;99.90;;;;;;4897155;29;20450;-74
2022/12/15 09:43:52;;;;;;;9.43;6.00;;;0.30;99.90;;;;;;4899442;29;20056;-74
2022/12/15 09:46:47;;;;;;;9.48;5.40;;;0.30;99.90;;;;;;4898424;29;20120;-74
2022/12/15 09:49:42;;;;;;;9.20;5.80;;;0.30;99.90;;;;;;4897905;29;20056;-73
2022/12/15 09:52:30;;;;;;;8.80;5.68;;;0.30;99.90;;;;;;4888357;29;20052;-73
2022/12/15 09:54:57;;;;;;;9.68;5.55;;;0.30;99.90;;;;;;4896448;29;20040;-73
2022/12/15 09:57:26;;;;;;;;;;;0.40;99.90;;;;;;4894380;29;20056;-73
2022/12/15 10:00:23;;;;;;;7.90;5.40;;;0.40;99.90;;;;;;4878909;29;19923;-73
2022/12/15 10:02:57;;;;;;;8.77;5.32;;;0.50;99.90;;;;;;4881820;29;20063;-74
2022/12/15 10:05:54;;;;;;;10.00;6.07;;;0.50;99.90;;;;;;4896005;29;20052;-75
2022/12/15 10:08:22;;;;;;;9.57;5.85;;;0.60;99.90;;;;;;4894429;29;20068;-73
2022/12/15 10:10:56;;;;;;;9.13;5.70;;;0.60;99.90;;;;;;4897133;29;20075;-73
2022/12/15 10:13:28;;;;;;;11.02;6.85;;;0.70;99.90;;;;;;4898134;29;20043;-74
2022/12/15 10:16:02;;;;;;;10.23;5.40;;;0.70;99.90;;;;;;4893939;29;20043;-73
2022/12/15 10:18:43;;;;;;;9.02;5.28;;;0.80;99.90;;;;;;4897248;29;20065;-73
2022/12/15 10:21:13;;;;;;;10.20;5.75;;;0.90;99.90;;;;;;4911054;29;20036;-73
2022/12/15 10:23:39;;;;;;;8.45;5.78;;;1.00;99.90;;;;;;4897378;29;20398;-73
2022/12/15 10:26:22;;;;;;;7.90;5.32;;;1.10;99.90;;;;;;4914175;29;20063;-73
2022/12/15 10:28:47;;;;;;;8.63;5.68;;;1.20;99.90;;;;;;4897739;29;20118;-73
2022/12/15 10:31:49;;;;;;;9.90;6.27;;;1.30;99.90;;;;;;4898123;29;20119;-73
2022/12/15 10:34:37;;;;;;;11.90;5.80;;;1.40;99.90;;;;;;4909868;29;20035;-74
2022/12/15 10:37:04;;;;;;;8.35;5.47;;;1.40;99.90;;;;;;4874856;29;20115;-73
2022/12/15 10:39:39;;;;;;;8.27;5.25;;;1.60;99.90;;;;;;4891763;29;20079;-74
2022/12/15 10:42:13;;;;;;;8.00;5.65;;;1.70;99.90;;;;;;4914678;29;20051;-74
2022/12/15 10:44:42;;;;;;;8.20;5.30;;;1.70;99.90;;;;;;4882210;29;20522;-73
2022/12/15 10:47:19;;;;;;;9.38;5.53;;;1.80;99.90;;;;;;4893653;29;20048;-73
2022/12/15 10:49:45;;;;;;;;;;;2.00;99.90;;;;;;4894524;29;20036;-71
2022/12/15 10:52:35;;;;;;;8.30;5.20;;;2.00;99.90;;;;;;4896091;29;20013;-72
2022/12/15 10:55:21;;;;;;;9.45;5.25;;;2.20;99.90;;;;;;4870077;29;20510;-72
2022/12/15 10:57:58;;;;;;;10.95;5.85;;;2.40;99.90;;;;;;4883354;29;20055;-72
2022/12/15 11:00:29;;;;;;;8.73;5.20;;;2.60;99.90;;;;;;4897288;29;20084;-72
2022/12/15 11:02:55;;;;;;;12.23;5.60;;;2.80;99.90;;;;;;4896769;29;20098;-73
2022/12/15 11:05:21;;;;;;;10.38;5.60;;;2.80;99.90;;;;;;4897431;29;20049;-73
2022/12/15 11:07:49;;;;;;;10.85;5.50;;;3.00;99.90;;;;;;4886057;29;20046;-73
2022/12/15 11:10:22;;;;;;;7.57;5.25;;;3.10;99.90;;;;;;4896656;29;20060;-73
2022/12/15 11:13:14;;;;;;;10.90;5.60;;;3.30;99.90;;;;;;4898660;29;20048;-73
2022/12/15 11:15:42;;;;;;;7.75;5.07;;;3.40;99.90;;;;;;4913630;29;20118;-73
2022/12/15 11:18:34;;;;;;;8.98;5.22;;;3.60;99.90;;;;;;4892524;29;20044;-73
2022/12/15 11:21:33;;;;;;;10.13;5.20;;;3.70;99.90;;;;;;4917337;29;20130;-72
2022/12/15 11:24:17;;;;;;;7.32;4.97;;;3.80;99.90;;;;;;4898648;29;20068;-73
2022/12/15 11:26:53;;;;;;;9.40;4.47;;;4.00;99.90;;;;;;4881304;29;20048;-73
2022/12/15 11:29:22;;;;;;;11.38;5.20;;;4.20;99.90;;;;;;4889721;29;20052;-73
2022/12/15 11:31:50;;;;;;;9.15;4.80;;;4.20;99.90;;;;;;4894464;29;20039;-73
2022/12/15 11:34:20;;;;;;;8.10;4.60;;;4.20;99.90;;;;;;4900292;29;20040;-73
2022/12/15 11:36:53;;;;;;;9.13;5.13;;;4.20;99.90;;;;;;4918298;29;20103;-73
2022/12/15 11:39:34;;;;;;;8.88;4.43;;;4.20;99.90;;;;;;4900584;29;20071;-73
2022/12/15 11:42:09;;;;;;;7.47;4.72;;;4.30;99.90;;;;;;4896392;29;20055;-73
2022/12/15 11:45:09;;;;;;;9.00;4.85;;;4.20;99.90;;;;;;4895841;29;20040;-73
2022/12/15 11:47:43;;;;;;;7.35;4.40;;;4.30;99.90;;;;;;4894683;29;20389;-74
2022/12/15 11:50:35;;;;;;;8.65;4.88;;;4.40;99.90;;;;;;4910136;29;20394;-74
2022/12/15 11:53:13;;;;;;;9.65;4.93;;;4.30;99.90;;;;;;4871564;29;20083;-73
2022/12/15 11:55:48;;;;;;;9.18;4.78;;;4.40;99.90;;;;;;4900878;29;20052;-73
2022/12/15 11:58:22;;;;;;;6.88;4.43;;;4.40;99.90;;;;;;4885212;29;20576;-74
2022/12/15 12:01:10;;;;;;;6.68;4.43;;;4.40;99.90;;;;;;4901157;29;20103;-73
2022/12/15 12:03:48;;;;;;;;;;;4.50;99.90;;;;;;4900944;29;20455;-73
2022/12/15 12:06:21;;;;;;;8.43;4.55;;;4.50;99.90;;;;;;4900681;29;19961;-73
2022/12/15 12:08:55;;;;;;;8.48;4.70;;;4.50;99.90;;;;;;4887701;29;20072;-73
2022/12/15 12:11:33;;;;;;;8.48;4.90;;;4.30;99.90;;;;;;4901193;29;20455;-72
2022/12/15 12:14:25;;;;;;;10.02;5.03;;;4.30;99.90;;;;;;4882229;29;20131;-72
2022/12/15 12:17:20;;;;;;;7.90;5.22;;;4.20;99.90;;;;;;4884916;29;20052;-73
2022/12/15 12:19:53;;;;;;;10.02;4.95;;;4.10;99.90;;;;;;4890004;29;20044;-72
2022/12/15 12:22:31;;;;;;;10.20;4.80;;;4.10;99.90;;;;;;4900303;29;20150;-72
2022/12/15 12:25:01;;;;;;;11.05;5.82;;;4.20;99.90;;;;;;4900686;29;20048;-72
2022/12/15 12:27:41;;;;;;;9.80;5.05;;;4.20;99.90;;;;;;4900927;29;20051;-73
2022/12/15 12:30:20;;;;;;;9.70;4.90;;;4.20;99.90;;;;;;4900449;29;20075;-72
2022/12/15 12:33:02;;;;;;;9.63;4.80;;;4.20;99.90;;;;;;4896422;29;20505;-71
2022/12/15 12:35:36;;;;;;;6.72;4.65;;;4.10;99.90;;;;;;4908418;29;20035;-72
2022/12/15 12:38:05;;;;;;;6.75;4.47;;;4.10;99.90;;;;;;4895756;29;20064;-70
2022/12/15 12:40:40;;;;;;;7.72;4.45;;;4.10;99.90;;;;;;4880262;29;20052;-70
2022/12/15 12:43:13;;;;;;;7.13;4.13;;;4.10;99.90;;;;;;4898974;29;20063;-73
2022/12/15 12:45:47;;;;;;;7.63;3.90;;;4.10;99.90;;;;;;4897630;29;20044;-72
2022/12/15 12:48:47;;;;;;;9.98;4.50;;;4.10;99.90;;;;;;4897150;29;20048;-72
2022/12/15 12:51:25;;;;;;;11.95;4.40;;;4.10;99.90;;;;;;4897800;29;20044;-73
2022/12/15 12:53:52;;;;;;;7.68;4.03;;;4.10;99.90;;;;;;4890705;29;20052;-73
2022/12/15 12:56:38;;;;;;;8.65;4.03;;;4.10;99.90;;;;;;4866558;29;20064;-73
2022/12/15 12:59:27;;;;;;;8.38;4.13;;;4.10;99.90;;;;;;4876979;29;20131;-72
2022/12/15 13:02:09;;;;;;;9.50;4.20;;;4.10;99.90;;;;;;4894548;29;20044;-72
2022/12/15 13:04:35;;;;;;;7.55;4.15;;;4.10;99.90;;;;;;4895307;29;20418;-72
2022/12/15 13:07:05;;;;;;;6.50;3.92;;;4.10;99.90;;;;;;4880964;29;20177;-73
2022/12/15 13:09:42;;;;;;;8.43;4.07;;;4.10;99.90;;;;;;4893090;29;20056;-70
2022/12/15 13:12:46;;;;;;;8.07;4.18;;;4.10;99.90;;;;;;4889271;29;20055;-70
2022/12/15 13:15:28;;;;;;;6.35;3.92;;;4.20;99.90;;;;;;4891306;29;20044;-70
2022/12/15 13:17:59;;;;;;;9.82;4.07;;;4.20;99.90;;;;;;4891288;29;20392;-70
2022/12/15 13:20:30;;;;;;;7.25;3.80;;;4.10;99.90;;;;;;4906448;29;20045;-70
2022/12/15 13:23:34;;;;;;;7.60;4.22;;;4.20;99.90;;;;;;4879961;29;20131;-70
2022/12/15 13:26:01;;;;;;;6.88;3.92;;;4.10;99.90;;;;;;4909313;29;20044;-73
2022/12/15 13:28:39;;;;;;;7.40;4.40;;;4.10;99.90;;;;;;4907712;29;20463;-73
2022/12/15 13:31:19;;;;;;;8.13;4.10;;;4.20;99.90;;;;;;4894392;29;20406;-73
2022/12/15 13:34:00;;;;;;;7.07;3.35;;;4.20;99.90;;;;;;4888052;29;20052;-72
2022/12/15 13:36:42;;;;;;;6.75;3.90;;;4.00;99.90;;;;;;4892315;29;20584;-72
2022/12/15 13:39:16;;;;;;;9.02;4.30;;;3.90;99.90;;;;;;4893667;29;20159;-72
2022/12/15 13:41:46;;;;;;;11.77;4.07;;;3.80;99.90;;;;;;4893447;29;20138;-74
2022/12/15 13:44:29;;;;;;;8.00;4.10;;;3.70;99.90;;;;;;4894222;29;20430;-72
2022/12/15 13:47:06;;;;;;;5.63;3.47;;;3.70;99.90;;;;;;4906698;29;20052;-72
2022/12/15 13:49:47;;;;;;;6.45;3.58;;;3.70;99.90;;;;;;4888434;29;20054;-72
2022/12/15 13:52:22;;;;;;;6.45;3.28;;;3.70;99.90;;;;;;4889208;29;20052;-72
2022/12/15 13:54:53;;;;;;;8.48;3.63;;;3.60;99.90;;;;;;4892380;29;20435;-72
2022/12/15 13:57:19;;;;;;;8.50;3.60;;;3.60;99.90;;;;;;4893778;29;20040;-72
2022/12/15 13:59:50;;;;;;;7.40;3.00;;;3.50;99.90;;;;;;4875030;29;20058;-73
2022/12/15 14:02:23;;;;;;;6.00;3.20;;;3.60;99.90;;;;;;4890615;29;20082;-71
2022/12/15 14:05:18;;;;;;;7.32;3.20;;;3.60;99.90;;;;;;4909893;29;20482;-70
2022/12/15 14:07:53;;;;;;;6.00;3.35;;;3.60;99.90;;;;;;4907900;29;20545;-70
2022/12/15 14:10:23;;;;;;;6.38;3.50;;;3.60;99.90;;;;;;4875839;29;20131;-70
2022/12/15 14:12:51;;;;;;;7.97;3.92;;;3.50;99.90;;;;;;4887330;29;20494;-70
2022/12/15 14:15:32;;;;;;;6.72;4.20;;;3.50;99.90;;;;;;4886708;29;20045;-70
2022/12/15 14:18:00;;;;;;;10.07;4.22;;;3.50;99.90;;;;;;4888111;29;20127;-71
2022/12/15 14:20:38;;;;;;;10.23;4.88;;;3.50;99.90;;;;;;4879556;29;20048;-71
2022/12/15 14:23:26;;;;;;;8.50;4.38;;;3.50;99.90;;;;;;4907066;29;20058;-70
2022/12/15 14:26:10;;;;;;;8.82;4.38;;;3.40;99.90;;;;;;4888988;29;20119;-70
2022/12/15 14:28:38;;;;;;;10.15;4.70;;;3.40;99.90;;;;;;4890828;29;20175;-70
2022/12/15 14:31:23;;;;;;;9.00;4.00;;;3.40;99.90;;;;;;4906473;29;20320;-70
2022/12/15 14:33:57;;;;;;;8.38;4.40;;;3.40;99.90;;;;;;4889463;29;20074;-70
2022/12/15 14:36:23;;;;;;;11.02;4.90;;;3.30;99.90;;;;;;4889885;29;20052;-70
2022/12/15 14:39:12;;;;;;;8.77;5.75;;;3.30;99.90;;;;;;4873590;29;20055;-70
2022/12/15 14:41:43;;;;;;;11.13;4.63;;;3.20;99.90;;;;;;4892698;29;20746;-70
2022/12/15 14:44:30;;;;;;;8.05;4.70;;;3.20;99.90;;;;;;4888478;29;20063;-71
2022/12/15 14:46:56;;;;;;;9.48;4.75;;;3.20;99.90;;;;;;4885780;29;20554;-71
2022/12/15 14:49:26;;;;;;;8.02;4.50;;;3.20;99.90;;;;;;4895650;29;20044;-70
2022/12/15 14:51:58;;;;;;;8.48;4.90;;;3.20;99.90;;;;;;4888639;29;20116;-70
2022/12/15 14:54:49;;;;;;;6.90;4.43;;;3.20;99.90;;;;;;4890448;29;20466;-70
2022/12/15 14:57:21;;;;;;;10.40;4.93;;;3.20;99.90;;;;;;4886957;29;20048;-70
2022/12/15 14:59:47;;;;;;;9.05;5.05;;;3.20;99.90;;;;;;4889293;29;20052;-71
2022/12/15 15:02:18;;;;;;;;;;;3.20;99.90;;;;;;4906332;29;20044;-71
2022/12/15 15:04:58;;;;;;;11.27;5.20;;;3.20;99.90;;;;;;4891749;29;19919;-70
2022/12/15 15:07:25;;;;;;;9.70;4.90;;;3.20;99.90;;;;;;4890318;29;20514;-70
2022/12/15 15:09:51;;;;;;;7.00;4.50;;;3.20;99.90;;;;;;4889527;29;20214;-70
2022/12/15 15:12:19;;;;;;;;;;;3.20;99.90;;;;;;4887638;29;20316;-71
2022/12/15 15:14:52;;;;;;;7.18;4.05;;;3.20;99.90;;;;;;4886693;29;19927;-70
2022/12/15 15:17:23;;;;;;;9.32;4.50;;;3.10;99.90;;;;;;4888970;29;20968;-71
2022/12/15 15:19:53;;;;;;;8.65;4.38;;;3.10;99.90;;;;;;4901718;29;20132;-70
2022/12/15 15:22:32;;;;;;;6.93;3.95;;;3.00;99.90;;;;;;4888662;29;20066;-71
2022/12/15 15:24:58;;;;;;;6.97;4.18;;;2.90;99.90;;;;;;4906107;29;20092;-71
2022/12/15 15:27:36;;;;;;;8.85;4.47;;;2.80;99.90;;;;;;4905294;29;20048;-70
2022/12/15 15:30:15;;;;;;;5.93;3.97;;;2.80;99.90;;;;;;4886645;29;20048;-71
2022/12/15 15:32:56;;;;;;;7.90;4.13;;;2.60;99.90;;;;;;4873819;29;20044;-71
2022/12/15 15:35:28;;;;;;;6.93;4.13;;;2.60;99.90;;;;;;4888033;29;20047;-71
2022/12/15 15:38:02;;;;;;;6.68;4.10;;;2.50;99.90;;;;;;4876878;29;20052;-71
2022/12/15 15:40:28;;;;;;;6.50;3.22;;;2.40;99.90;;;;;;4909110;29;20051;-71